Tallahassee, FL

5:17 AM EDT on August 29, 2016 (GMT -0400)
Tallahassee Regional | | Change Station

Elev 52 ft 30.39 °N, 84.35 °W | Updated 24 minutes ago

Clear
Clear
79 °F
Feels Like 79 °F
N
6
Wind Variable Wind from ENE

Today
High -- | Low -- °F
--% Chance of Precip.
Yesterday
High -- | Low -- °F
Precip. -- in
Pressure 29.99 in
Visibility 10.0 miles
Clouds Clear
Dew Point 75 °F
Humidity 88%
Rainfall 0.00 in
Snow Depth Not available.
7:12 AM 8:03 PM
Waning Crescent, 10% visible
METAR KTLH 290853Z AUTO 07005KT 10SM CLR 26/24 A2999 RMK AO2 SLP153 T02610239 55002
Pressure 29.99 in
Visibility 10.0 miles
Clouds Clear
Dew Point 75 °F
Humidity 88%
Rainfall 0.00 in
Snow Depth Not available.
7:12 AM 8:03 PM
Waning Crescent, 10% visible
METAR KTLH 290853Z AUTO 07005KT 10SM CLR 26/24 A2999 RMK AO2 SLP153 T02610239 55002
The area of storminess, previously known as Invest 99-L that we were monitoring for days, finally developed into Tropical Depression Nine near the Florida Keys on Sunday evening.

There remains a large degree of uncertainty around how much this system will strengthen once it gets into the southeast Gulf of Mexico. For now, the clockwise flow around upper-level high pressure over the eastern United States will steer Tropical Depression Nine west-northwest toward the Gulf. That high will weaken by Tuesday, allowing this system to move more north, and then eventually northeast the next several days on a path toward the Florida Gulf Coast.

10-Day Weather Forecast

Almanac

Astronomy

Aug. 29, 2016 Rise Set
Actual Time
Civil Twilight
Nautical Twilight
Astronomical Twilight
Moon
Length of Visible Light
Length of Day
Tomorrow will be .
, % of the Moon is Illuminated

Today's Extremes

State Highs State Lows

Community

WunderPhotos

Upload Photos

1,935,798 photos uploaded!

WunderBlog® & News

Nearby

Air Quality

  Air Quality AQ Index Pollutant
Not available.

Snow Depth

Station Depth Elevation

Earthquake Activity

City Distance Mag. Time & Date
Minimum magnitude displayed is 2.5.

Coastal Water Temperatures

Place Temperature

Stations

Nearby Weather Stations

Station Location Temp. Windchill Dew Point Humidity Wind Precip. Elev Updated Type
                   

Watches & Warnings

There are currently no watches in effect.